Terminal Aerodrome Forecast
Issued by NWS Louisville, KY

Home | Current Version | Previous Version | Text Only | Print | Product List | Glossary Off
Versions: 1 2 3 4 5 6 7 8 9 10 11 12 13 14 15 16 17 18 19 20 21 22 23 24 25 26 27 28

058
FTUS43 KLMK 210130 AAA
TAFSDF
TAF AMD
KSDF 210130Z 2102/2206 13005KT P6SM BKN250
     FM211500 18008KT P6SM BKN045
     FM212000 17006KT 5SM -SHRA OVC025
     FM212300 15005KT 3SM -SHRA OVC015=

USA.gov is the U.S. government's official web portal to all federal, state and local government web resources and services.